Private Wetterstation Wechselburg
Wetterdaten: Donnerstag, 27.06.2013
Datum Zeit Temp. +2m Bodentemp. Temp.+5cm Temp. Wind Windchill X Diff Temp. Feuchte +2m Feuchte +5cm Sonnenschein Luftdruck Regen Wind Richtung Richtung Sonnenschein UV Taupunkt Windchill Windben
27.06.2013 00:00 11,1 C 21,9 C 11,2 C 10,9 C 10,5 C 0,0 C 80 % 82 % 0 % 1022,4 hPa 0,0 l/m 2,3 km/h (1 Bft) SW 225 0 min 0,0 UV-I 7,8 C 10,5 C 4,8 km/h (1 Bft)
27.06.2013 00:05 11,0 C 21,9 C 11,1 C 10,8 C 10,5 C 0,0 C 80 % 82 % 0 % 1022,4 hPa 0,0 l/m 2,4 km/h (1 Bft) NW 315 0 min 0,0 UV-I 7,7 C 10,5 C 2,9 km/h (1 Bft)
27.06.2013 00:10 10,9 C 21,9 C 11,1 C 10,7 C 10,4 C 0,0 C 80 % 82 % 0 % 1022,4 hPa 0,0 l/m 2,7 km/h (1 Bft) SW 225 0 min 0,0 UV-I 7,6 C 10,4 C 2,6 km/h (1 Bft)
27.06.2013 00:15 10,8 C 21,9 C 11,0 C 10,6 C 10,3 C 0,0 C 80 % 82 % 0 % 1022,3 hPa 0,0 l/m 2,3 km/h (1 Bft) W 270 0 min 0,0 UV-I 7,5 C 10,3 C 1,6 km/h (1 Bft)
27.06.2013 00:20 10,8 C 21,9 C 11,1 C 10,6 C 10,1 C 0,0 C 81 % 82 % 0 % 1022,3 hPa 0,0 l/m 1,6 km/h (1 Bft) SW 225 0 min 0,0 UV-I 7,7 C 10,1 C 0,0 km/h (0 Bft)
27.06.2013 00:25 10,7 C 22,0 C 10,9 C 10,4 C 9,9 C 0,0 C 81 % 82 % 0 % 1022,3 hPa 0,0 l/m 1,0 km/h (0 Bft) W-SW 247 0 min 0,0 UV-I 7,6 C 9,9 C 0,0 km/h (0 Bft)
27.06.2013 00:30 10,6 C 22,0 C 10,8 C 10,3 C 9,7 C 0,0 C 81 % 82 % 0 % 1022,3 hPa 0,0 l/m 0,3 km/h (0 Bft) SW 225 0 min 0,0 UV-I 7,5 C 9,7 C 0,0 km/h (0 Bft)
27.06.2013 00:35 10,5 C 21,9 C 10,8 C 10,2 C 9,5 C 0,0 C 81 % 82 % 0 % 1022,2 hPa 0,0 l/m 0,6 km/h (0 Bft) W 270 0 min 0,0 UV-I 7,4 C 9,5 C 2,9 km/h (1 Bft)
27.06.2013 00:41 10,4 C 21,9 C 10,7 C 10,0 C 9,3 C 0,0 C 81 % 82 % 0 % 1022,2 hPa 0,0 l/m 1,3 km/h (1 Bft) N 0 0 min 0,0 UV-I 7,3 C 9,3 C 0,0 km/h (0 Bft)
27.06.2013 00:58 10,0 C 21,9 C 10,5 C 9,6 C 8,9 C 0,0 C 82 % 83 % 0 % 1022,2 hPa 0,0 l/m 1,4 km/h (1 Bft) W 270 0 min 0,0 UV-I 7,1 C 8,9 C 1,9 km/h (1 Bft)
27.06.2013 00:59 9,9 C 21,9 C 10,4 C 9,6 C 8,9 C 0,0 C 82 % 83 % 0 % 1022,2 hPa 0,0 l/m 1,9 km/h (1 Bft) SW 225 0 min 0,0 UV-I 7,0 C 8,9 C 2,9 km/h (1 Bft)
27.06.2013 01:05 9,8 C 21,9 C 10,5 C 9,5 C 8,8 C 0,0 C 82 % 83 % 0 % 1022,2 hPa 0,0 l/m 1,8 km/h (1 Bft) W 270 0 min 0,0 UV-I 6,9 C 8,8 C 2,7 km/h (1 Bft)
27.06.2013 01:10 9,6 C 21,9 C 10,4 C 9,3 C 8,7 C 0,0 C 82 % 83 % 0 % 1022,2 hPa 0,0 l/m 2,1 km/h (1 Bft) W 270 0 min 0,0 UV-I 6,7 C 8,7 C 0,0 km/h (0 Bft)
27.06.2013 01:15 9,7 C 21,9 C 10,3 C 9,4 C 8,7 C 0,0 C 83 % 83 % 0 % 1022,2 hPa 0,0 l/m 1,9 km/h (1 Bft) W-SW 247 0 min 0,0 UV-I 7,0 C 8,7 C 1,6 km/h (1 Bft)
27.06.2013 01:20 9,5 C 21,9 C 10,3 C 9,2 C 8,5 C 0,0 C 83 % 83 % 0 % 1022,2 hPa 0,0 l/m 1,8 km/h (1 Bft) W-SW 247 0 min 0,0 UV-I 6,8 C 8,5 C 6,4 km/h (2 Bft)
27.06.2013 01:25 9,3 C 21,9 C 10,3 C 9,0 C 8,5 C 0,0 C 83 % 83 % 0 % 1022,2 hPa 0,0 l/m 1,9 km/h (1 Bft) W-SW 247 0 min 0,0 UV-I 6,6 C 8,5 C 0,0 km/h (0 Bft)
27.06.2013 01:30 9,2 C 22,0 C 10,1 C 8,9 C 8,4 C 0,0 C 83 % 83 % 0 % 1022,2 hPa 0,0 l/m 1,3 km/h (1 Bft) W 270 0 min 0,0 UV-I 6,5 C 8,4 C 1,6 km/h (1 Bft)
27.06.2013 01:35 9,1 C 22,0 C 10,0 C 8,8 C 8,3 C 0,0 C 83 % 83 % 0 % 1022,1 hPa 0,0 l/m 1,1 km/h (1 Bft) W-SW 247 0 min 0,0 UV-I 6,4 C 8,3 C 0,0 km/h (0 Bft)
27.06.2013 01:40 9,0 C 22,0 C 10,0 C 8,7 C 8,2 C 0,0 C 83 % 83 % 0 % 1022,1 hPa 0,0 l/m 1,1 km/h (1 Bft) W-SW 247 0 min 0,0 UV-I 6,3 C 8,2 C 2,4 km/h (1 Bft)
27.06.2013 01:45 8,8 C 22,0 C 9,9 C 8,6 C 8,1 C 0,0 C 84 % 83 % 0 % 1022,1 hPa 0,0 l/m 1,0 km/h (0 Bft) W 270 0 min 0,0 UV-I 6,2 C 8,1 C 0,0 km/h (0 Bft)
27.06.2013 01:50 8,7 C 22,1 C 9,8 C 8,4 C 7,9 C 0,0 C 84 % 83 % 0 % 1022,1 hPa 0,0 l/m 0,5 km/h (0 Bft) N-NW 337 0 min 0,0 UV-I 6,2 C 7,9 C 0,0 km/h (0 Bft)
27.06.2013 01:55 8,7 C 22,2 C 9,6 C 8,4 C 7,8 C 0,0 C 84 % 83 % 0 % 1022,3 hPa 0,0 l/m 0,2 km/h (0 Bft) N-NW 337 0 min 0,0 UV-I 6,2 C 7,8 C 0,0 km/h (0 Bft)
27.06.2013 02:00 8,4 C 22,2 C 9,5 C 8,1 C 7,5 C 0,0 C 84 % 83 % 0 % 1022,3 hPa 0,0 l/m 0,0 km/h (0 Bft) S-SO 157 0 min 0,0 UV-I 5,9 C 7,5 C 0,0 km/h (0 Bft)
27.06.2013 02:05 8,3 C 22,2 C 9,5 C 8,0 C 7,3 C 0,0 C 84 % 83 % 0 % 1022,3 hPa 0,0 l/m 0,0 km/h (0 Bft) N-NW 337 0 min 0,0 UV-I 5,8 C 7,3 C 0,0 km/h (0 Bft)
27.06.2013 02:10 8,1 C 22,2 C 9,3 C 7,8 C 7,2 C 0,0 C 84 % 83 % 0 % 1022,3 hPa 0,0 l/m 0,0 km/h (0 Bft) O-NO 67 0 min 0,0 UV-I 5,6 C 7,2 C 0,0 km/h (0 Bft)
27.06.2013 02:15 8,0 C 22,3 C 9,2 C 7,7 C 7,2 C 0,0 C 85 % 83 % 0 % 1022,1 hPa 0,0 l/m 0,0 km/h (0 Bft) O-NO 67 0 min 0,0 UV-I 5,6 C 7,2 C 0,0 km/h (0 Bft)
27.06.2013 02:20 7,9 C 22,4 C 9,2 C 7,7 C 7,2 C 0,0 C 85 % 84 % 0 % 1022,1 hPa 0,0 l/m 0,0 km/h (0 Bft) O-NO 67 0 min 0,0 UV-I 5,5 C 7,2 C 0,0 km/h (0 Bft)
27.06.2013 02:25 7,9 C 22,3 C 9,1 C 7,7 C 7,2 C 0,0 C 85 % 84 % 0 % 1022,1 hPa 0,0 l/m 0,0 km/h (0 Bft) O-NO 67 0 min 0,0 UV-I 5,5 C 7,2 C 0,0 km/h (0 Bft)
27.06.2013 02:30 7,7 C 22,4 C 9,1 C 7,6 C 7,3 C 0,0 C 86 % 84 % 0 % 1022,1 hPa 0,0 l/m 0,0 km/h (0 Bft) O-SO 112 0 min 0,0 UV-I 5,5 C 7,3 C 0,0 km/h (0 Bft)
27.06.2013 02:35 7,6 C 22,3 C 9,1 C 7,5 C 7,4 C 0,0 C 86 % 84 % 0 % 1022,8 hPa 0,0 l/m 0,0 km/h (0 Bft) O 90 0 min 0,0 UV-I 5,4 C 7,4 C 0,0 km/h (0 Bft)
27.06.2013 02:40 7,6 C 22,4 C 9,1 C 7,6 C 7,5 C 0,0 C 86 % 84 % 0 % 1022,8 hPa 0,0 l/m 0,0 km/h (0 Bft) O 90 0 min 0,0 UV-I 5,4 C 7,5 C 0,0 km/h (0 Bft)
27.06.2013 02:45 7,5 C 22,4 C 9,1 C 7,5 C 7,5 C 0,0 C 86 % 84 % 0 % 1022,8 hPa 0,0 l/m 0,2 km/h (0 Bft) O 90 0 min 0,0 UV-I 5,3 C 7,5 C 0,0 km/h (0 Bft)
27.06.2013 02:50 7,5 C 22,3 C 9,1 C 7,7 C 7,7 C 0,2 C 86 % 84 % 0 % 1022,8 hPa 0,0 l/m 0,2 km/h (0 Bft) O 90 0 min 0,0 UV-I 5,3 C 7,7 C 0,0 km/h (0 Bft)
27.06.2013 02:55 7,4 C 22,4 C 9,2 C 7,8 C 7,8 C 0,4 C 86 % 85 % 0 % 1021,9 hPa 0,0 l/m 0,0 km/h (0 Bft) O-NO 67 0 min 0,0 UV-I 5,2 C 7,8 C 0,0 km/h (0 Bft)
27.06.2013 03:00 7,5 C 22,4 C 9,2 C 8,0 C 8,0 C 0,5 C 87 % 85 % 0 % 1021,9 hPa 0,0 l/m 0,2 km/h (0 Bft) O-NO 67 0 min 0,0 UV-I 5,5 C 8,0 C 0,0 km/h (0 Bft)
27.06.2013 03:05 7,5 C 22,4 C 9,3 C 8,0 C 8,0 C 0,5 C 87 % 85 % 0 % 1021,9 hPa 0,0 l/m 0,2 km/h (0 Bft) O 90 0 min 0,0 UV-I 5,5 C 8,0 C 0,0 km/h (0 Bft)
27.06.2013 03:10 7,5 C 22,4 C 9,3 C 8,0 C 8,0 C 0,5 C 87 % 85 % 0 % 1021,9 hPa 0,0 l/m 0,0 km/h (0 Bft) O-SO 112 0 min 0,0 UV-I 5,5 C 8,0 C 0,0 km/h (0 Bft)
27.06.2013 03:15 7,5 C 22,4 C 9,3 C 7,8 C 7,8 C 0,3 C 87 % 85 % 0 % 1021,9 hPa 0,0 l/m 0,0 km/h (0 Bft) O-NO 67 0 min 0,0 UV-I 5,5 C 7,8 C 0,0 km/h (0 Bft)
27.06.2013 03:20 7,5 C 22,4 C 9,2 C 7,8 C 7,8 C 0,3 C 87 % 85 % 0 % 1021,9 hPa 0,0 l/m 0,0 km/h (0 Bft) O 90 0 min 0,0 UV-I 5,5 C 7,8 C 0,0 km/h (0 Bft)
27.06.2013 03:25 7,5 C 22,3 C 9,3 C 7,8 C 7,8 C 0,3 C 87 % 85 % 0 % 1021,9 hPa 0,0 l/m 0,0 km/h (0 Bft) O-NO 67 0 min 0,0 UV-I 5,5 C 7,8 C 0,0 km/h (0 Bft)
27.06.2013 03:30 7,5 C 22,3 C 9,2 C 7,8 C 7,8 C 0,3 C 87 % 85 % 0 % 1021,9 hPa 0,0 l/m 0,0 km/h (0 Bft) O 90 0 min 0,0 UV-I 5,5 C 7,8 C 0,0 km/h (0 Bft)
27.06.2013 03:35 7,5 C 22,3 C 9,2 C 7,9 C 7,9 C 0,4 C 87 % 85 % 0 % 1021,6 hPa 0,0 l/m 0,0 km/h (0 Bft) O 90 0 min 0,0 UV-I 5,5 C 7,9 C 0,0 km/h (0 Bft)
27.06.2013 03:40 7,5 C 22,3 C 9,3 C 8,0 C 8,0 C 0,5 C 87 % 85 % 0 % 1021,6 hPa 0,0 l/m 0,0 km/h (0 Bft) O 90 0 min 0,0 UV-I 5,5 C 8,0 C 0,0 km/h (0 Bft)
27.06.2013 03:45 7,5 C 22,3 C 9,3 C 8,1 C 8,1 C 0,6 C 87 % 85 % 0 % 1021,6 hPa 0,0 l/m 0,0 km/h (0 Bft) O-NO 67 0 min 0,0 UV-I 5,5 C 8,1 C 0,0 km/h (0 Bft)
27.06.2013 03:50 7,6 C 22,3 C 9,3 C 8,2 C 8,2 C 0,6 C 87 % 85 % 0 % 1021,6 hPa 0,0 l/m 0,0 km/h (0 Bft) O 90 0 min 0,0 UV-I 5,6 C 8,2 C 0,0 km/h (0 Bft)
27.06.2013 03:55 7,6 C 22,3 C 9,3 C 8,2 C 8,2 C 0,6 C 88 % 85 % 0 % 1021,6 hPa 0,0 l/m 0,0 km/h (0 Bft) N-NO 22 0 min 0,0 UV-I 5,7 C 8,2 C 0,0 km/h (0 Bft)
27.06.2013 04:00 7,6 C 22,3 C 9,3 C 8,3 C 8,3 C 0,7 C 88 % 85 % 0 % 1021,6 hPa 0,0 l/m 0,0 km/h (0 Bft) O-SO 112 0 min 0,0 UV-I 5,7 C 8,3 C 0,0 km/h (0 Bft)
27.06.2013 04:05 7,6 C 22,3 C 9,5 C 8,4 C 8,4 C 0,8 C 88 % 85 % 0 % 1021,6 hPa 0,0 l/m 0,0 km/h (0 Bft) O-NO 67 0 min 0,0 UV-I 5,7 C 8,4 C 0,0 km/h (0 Bft)
27.06.2013 04:10 7,7 C 22,3 C 9,5 C 8,5 C 8,5 C 0,8 C 88 % 85 % 0 % 1021,6 hPa 0,0 l/m 0,0 km/h (0 Bft) O 90 0 min 0,0 UV-I 5,8 C 8,5 C 0,0 km/h (0 Bft)
27.06.2013 04:15 7,7 C 22,2 C 9,6 C 8,5 C 8,5 C 0,8 C 88 % 85 % 0 % 1021,5 hPa 0,0 l/m 0,0 km/h (0 Bft) O-SO 112 0 min 0,0 UV-I 5,8 C 8,5 C 0,0 km/h (0 Bft)
27.06.2013 04:20 7,7 C 22,2 C 9,5 C 8,6 C 8,6 C 0,9 C 88 % 85 % 0 % 1021,5 hPa 0,0 l/m 0,0 km/h (0 Bft) SO 135 0 min 0,0 UV-I 5,8 C 8,6 C 0,0 km/h (0 Bft)
27.06.2013 04:25 7,8 C 22,1 C 9,6 C 8,7 C 8,7 C 0,9 C 88 % 85 % 0 % 1021,5 hPa 0,0 l/m 0,0 km/h (0 Bft) S 180 0 min 0,0 UV-I 5,9 C 8,7 C 0,0 km/h (0 Bft)
27.06.2013 04:30 7,9 C 22,1 C 9,6 C 8,7 C 8,7 C 0,8 C 88 % 85 % 0 % 1021,5 hPa 0,0 l/m 0,0 km/h (0 Bft) O 90 0 min 0,0 UV-I 6,0 C 8,7 C 0,0 km/h (0 Bft)
27.06.2013 04:35 7,9 C 22,1 C 9,7 C 8,5 C 8,5 C 0,6 C 88 % 84 % 0 % 1021,5 hPa 0,0 l/m 0,0 km/h (0 Bft) O-NO 67 0 min 0,0 UV-I 6,0 C 8,5 C 0,0 km/h (0 Bft)
27.06.2013 04:40 7,9 C 22,2 C 9,6 C 8,4 C 8,4 C 0,5 C 87 % 84 % 0 % 1021,5 hPa 0,0 l/m 0,0 km/h (0 Bft) O 90 0 min 0,0 UV-I 5,9 C 8,4 C 0,0 km/h (0 Bft)
27.06.2013 04:45 7,9 C 22,2 C 9,5 C 8,4 C 8,4 C 0,5 C 87 % 84 % 0 % 1021,5 hPa 0,0 l/m 0,0 km/h (0 Bft) N-NO 22 0 min 0,0 UV-I 5,9 C 8,4 C 0,0 km/h (0 Bft)
27.06.2013 04:50 7,9 C 22,1 C 9,6 C 8,5 C 8,5 C 0,6 C 87 % 85 % 0 % 1021,5 hPa 0,0 l/m 0,0 km/h (0 Bft) O-SO 112 0 min 0,0 UV-I 5,9 C 8,5 C 0,0 km/h (0 Bft)
27.06.2013 04:55 7,9 C 22,2 C 9,6 C 8,4 C 8,4 C 0,5 C 87 % 84 % 0 % 1021,5 hPa 0,0 l/m 0,0 km/h (0 Bft) O-NO 67 0 min 0,0 UV-I 5,9 C 8,4 C 0,0 km/h (0 Bft)
27.06.2013 05:00 7,9 C 22,2 C 9,5 C 8,2 C 8,2 C 0,3 C 87 % 84 % 0 % 1021,5 hPa 0,0 l/m 0,0 km/h (0 Bft) O 90 0 min 0,0 UV-I 5,9 C 8,2 C 0,0 km/h (0 Bft)
27.06.2013 05:05 7,9 C 22,2 C 9,4 C 8,2 C 8,2 C 0,3 C 87 % 84 % 0 % 1021,5 hPa 0,0 l/m 0,0 km/h (0 Bft) O-SO 112 0 min 0,0 UV-I 5,9 C 8,2 C 0,0 km/h (0 Bft)
27.06.2013 05:10 7,9 C 22,2 C 9,5 C 8,2 C 8,2 C 0,3 C 87 % 84 % 0 % 1021,5 hPa 0,0 l/m 0,0 km/h (0 Bft) O 90 0 min 0,1 UV-I 5,9 C 8,2 C 0,0 km/h (0 Bft)
27.06.2013 05:15 7,9 C 22,1 C 9,5 C 8,4 C 8,4 C 0,5 C 87 % 84 % 13 % 1021,4 hPa 0,0 l/m 0,0 km/h (0 Bft) O 90 5 min 0,1 UV-I 5,9 C 8,4 C 0,0 km/h (0 Bft)
27.06.2013 05:20 7,9 C 22,0 C 9,6 C 8,5 C 8,5 C 0,6 C 88 % 85 % 16 % 1021,4 hPa 0,0 l/m 0,0 km/h (0 Bft) N-NO 22 5 min 0,1 UV-I 6,0 C 8,5 C 0,0 km/h (0 Bft)
27.06.2013 05:25 7,9 C 22,0 C 9,7 C 8,7 C 8,7 C 0,8 C 88 % 85 % 21 % 1021,4 hPa 0,0 l/m 0,0 km/h (0 Bft) NO 45 5 min 0,1 UV-I 6,0 C 8,7 C 0,0 km/h (0 Bft)
27.06.2013 05:30 8,0 C 21,9 C 9,6 C 8,8 C 8,8 C 0,8 C 88 % 84 % 21 % 1021,4 hPa 0,0 l/m 0,0 km/h (0 Bft) S-SW 202 5 min 0,1 UV-I 6,1 C 8,8 C 0,0 km/h (0 Bft)
27.06.2013 05:35 8,0 C 21,9 C 9,6 C 8,9 C 8,9 C 0,9 C 88 % 84 % 24 % 1021,2 hPa 0,0 l/m 0,0 km/h (0 Bft) SW 225 5 min 0,1 UV-I 6,1 C 8,9 C 0,0 km/h (0 Bft)
27.06.2013 05:40 8,0 C 21,9 C 9,8 C 8,9 C 8,9 C 0,9 C 88 % 84 % 24 % 1021,2 hPa 0,0 l/m 0,0 km/h (0 Bft) S-SO 157 5 min 0,1 UV-I 6,1 C 8,9 C 0,0 km/h (0 Bft)
27.06.2013 05:45 8,0 C 22,0 C 9,9 C 8,9 C 8,9 C 0,9 C 88 % 84 % 24 % 1021,2 hPa 0,0 l/m 0,0 km/h (0 Bft) NW 315 0 min 0,1 UV-I 6,1 C 8,9 C 0,0 km/h (0 Bft)
27.06.2013 05:50 8,0 C 21,9 C 9,9 C 8,9 C 8,9 C 0,9 C 88 % 84 % 24 % 1021,2 hPa 0,0 l/m 0,0 km/h (0 Bft) NO 45 0 min 0,1 UV-I 6,1 C 8,9 C 0,0 km/h (0 Bft)
27.06.2013 05:55 8,0 C 21,8 C 9,8 C 9,0 C 9,0 C 1,0 C 88 % 84 % 26 % 1021,3 hPa 0,0 l/m 0,0 km/h (0 Bft) N-NO 22 0 min 0,1 UV-I 6,1 C 9,0 C 0,0 km/h (0 Bft)
27.06.2013 06:00 8,1 C 21,8 C 10,0 C 9,5 C 9,5 C 1,4 C 88 % 84 % 37 % 1021,3 hPa 0,0 l/m 0,0 km/h (0 Bft) O-NO 67 5 min 0,2 UV-I 6,2 C 9,5 C 0,0 km/h (0 Bft)
27.06.2013 06:05 8,3 C 21,8 C 10,1 C 9,6 C 9,6 C 1,3 C 88 % 84 % 34 % 1021,3 hPa 0,0 l/m 0,0 km/h (0 Bft) S-SO 157 0 min 0,2 UV-I 6,4 C 9,6 C 0,0 km/h (0 Bft)
27.06.2013 06:10 8,3 C 21,8 C 10,2 C 10,0 C 10,0 C 1,7 C 88 % 84 % 45 % 1021,3 hPa 0,0 l/m 0,0 km/h (0 Bft) N 360 5 min 0,2 UV-I 6,4 C 10,0 C 0,0 km/h (0 Bft)
27.06.2013 06:15 8,4 C 21,8 C 10,3 C 10,1 C 10,1 C 1,7 C 88 % 84 % 45 % 1021,2 hPa 0,0 l/m 0,0 km/h (0 Bft) W-SW 247 5 min 0,2 UV-I 6,5 C 10,1 C 0,0 km/h (0 Bft)
27.06.2013 06:20 8,5 C 21,8 C 10,4 C 10,2 C 10,2 C 1,7 C 88 % 84 % 45 % 1021,2 hPa 0,0 l/m 0,2 km/h (0 Bft) SO 135 0 min 0,2 UV-I 6,6 C 10,2 C 0,0 km/h (0 Bft)
27.06.2013 06:25 8,7 C 21,8 C 10,5 C 10,2 C 10,2 C 1,5 C 88 % 84 % 39 % 1021,2 hPa 0,0 l/m 0,2 km/h (0 Bft) S-SW 202 0 min 0,2 UV-I 6,8 C 10,2 C 0,0 km/h (0 Bft)
27.06.2013 06:30 8,7 C 21,8 C 10,4 C 10,3 C 10,3 C 1,6 C 87 % 84 % 42 % 1021,2 hPa 0,0 l/m 0,0 km/h (0 Bft) W-SW 247 0 min 0,2 UV-I 6,7 C 10,3 C 0,0 km/h (0 Bft)
27.06.2013 06:35 8,8 C 21,8 C 10,4 C 10,3 C 10,3 C 1,5 C 87 % 84 % 39 % 1021,3 hPa 0,0 l/m 0,0 km/h (0 Bft) O-NO 67 0 min 0,2 UV-I 6,8 C 10,3 C 0,0 km/h (0 Bft)
27.06.2013 06:41 8,9 C 21,8 C 10,5 C 10,5 C 10,5 C 1,6 C 87 % 84 % 42 % 1021,3 hPa 0,0 l/m 0,0 km/h (0 Bft) N 0 0 min 0,2 UV-I 6,9 C 10,5 C 0,0 km/h (0 Bft)
27.06.2013 07:00 9,3 C 21,8 C 10,8 C 11,0 C 11,0 C 1,7 C 87 % 83 % 45 % 1021,1 hPa 0,0 l/m 0,0 km/h (0 Bft) NW 315 0 min 0,4 UV-I 7,2 C 11,0 C 0,0 km/h (0 Bft)
27.06.2013 07:05 9,5 C 21,8 C 10,9 C 11,1 C 11,1 C 1,6 C 87 % 83 % 42 % 1021,1 hPa 0,0 l/m 0,0 km/h (0 Bft) O-NO 67 0 min 0,4 UV-I 7,4 C 11,1 C 0,0 km/h (0 Bft)
27.06.2013 07:10 9,6 C 21,8 C 11,0 C 11,3 C 11,3 C 1,7 C 87 % 83 % 45 % 1021,1 hPa 0,0 l/m 0,0 km/h (0 Bft) W-SW 247 0 min 0,4 UV-I 7,5 C 11,3 C 1,9 km/h (1 Bft)
27.06.2013 07:15 9,7 C 21,8 C 11,0 C 11,4 C 11,4 C 1,7 C 87 % 83 % 45 % 1021,2 hPa 0,0 l/m 0,2 km/h (0 Bft) SW 225 0 min 0,4 UV-I 7,6 C 11,4 C 0,0 km/h (0 Bft)
27.06.2013 07:20 9,8 C 21,8 C 11,2 C 11,6 C 11,6 C 1,8 C 87 % 83 % 47 % 1021,2 hPa 0,0 l/m 0,2 km/h (0 Bft) NW 315 0 min 0,4 UV-I 7,7 C 11,6 C 0,0 km/h (0 Bft)
27.06.2013 07:25 9,8 C 21,8 C 11,3 C 12,0 C 12,0 C 2,2 C 87 % 83 % 58 % 1021,2 hPa 0,0 l/m 0,0 km/h (0 Bft) N-NO 22 0 min 0,4 UV-I 7,7 C 12,0 C 0,0 km/h (0 Bft)
27.06.2013 07:30 10,1 C 21,8 C 11,6 C 13,2 C 13,2 C 3,1 C 87 % 84 % 82 % 1021,2 hPa 0,0 l/m 0,0 km/h (0 Bft) W 270 0 min 0,5 UV-I 8,0 C 13,2 C 1,6 km/h (1 Bft)
27.06.2013 07:35 10,3 C 21,7 C 11,9 C 14,6 C 14,6 C 4,3 C 86 % 83 % 100 % 1021,2 hPa 0,0 l/m 0,2 km/h (0 Bft) SO 135 5 min 0,5 UV-I 8,1 C 14,6 C 1,8 km/h (1 Bft)
27.06.2013 07:40 10,6 C 21,7 C 11,9 C 14,7 C 14,7 C 4,1 C 86 % 83 % 100 % 1021,2 hPa 0,0 l/m 0,5 km/h (0 Bft) N-NO 22 5 min 0,6 UV-I 8,4 C 14,7 C 0,0 km/h (0 Bft)
27.06.2013 07:45 10,9 C 21,7 C 11,9 C 14,4 C 14,4 C 3,5 C 85 % 83 % 92 % 1021,2 hPa 0,0 l/m 0,5 km/h (0 Bft) SW 225 5 min 0,6 UV-I 8,5 C 14,4 C 0,0 km/h (0 Bft)
27.06.2013 07:50 11,0 C 21,7 C 12,1 C 14,1 C 14,1 C 3,1 C 85 % 83 % 82 % 1021,2 hPa 0,0 l/m 0,2 km/h (0 Bft) S-SO 157 0 min 0,0 UV-I 8,6 C 14,1 C 0,0 km/h (0 Bft)
27.06.2013 07:55 11,2 C 21,7 C 12,0 C 14,3 C 14,3 C 3,1 C 84 % 83 % 82 % 1021,2 hPa 0,0 l/m 0,2 km/h (0 Bft) S-SO 157 0 min 0,0 UV-I 8,6 C 14,3 C 0,0 km/h (0 Bft)
27.06.2013 08:00 11,5 C 21,7 C 12,1 C 14,1 C 14,1 C 2,6 C 84 % 83 % 68 % 1021,2 hPa 0,0 l/m 0,3 km/h (0 Bft) SO 135 0 min 0,0 UV-I 8,9 C 14,1 C 0,0 km/h (0 Bft)
27.06.2013 08:05 11,6 C 21,7 C 12,2 C 14,1 C 14,1 C 2,5 C 84 % 82 % 66 % 1021,2 hPa 0,0 l/m 0,3 km/h (0 Bft) S-SO 157 0 min 0,0 UV-I 9,0 C 14,1 C 0,0 km/h (0 Bft)
27.06.2013 08:10 11,7 C 21,7 C 12,1 C 13,8 C 13,8 C 2,1 C 83 % 82 % 55 % 1021,2 hPa 0,0 l/m 0,2 km/h (0 Bft) S 180 0 min 0,0 UV-I 8,9 C 13,8 C 0,0 km/h (0 Bft)
27.06.2013 08:15 11,9 C 21,7 C 12,2 C 13,7 C 13,7 C 1,8 C 82 % 82 % 47 % 1021,2 hPa 0,0 l/m 0,2 km/h (0 Bft) S 180 0 min 0,0 UV-I 8,9 C 13,7 C 0,0 km/h (0 Bft)
27.06.2013 08:20 11,9 C 21,7 C 12,2 C 13,8 C 13,8 C 1,9 C 82 % 82 % 50 % 1021,2 hPa 0,0 l/m 0,2 km/h (0 Bft) S-SO 157 0 min 0,0 UV-I 8,9 C 13,8 C 0,0 km/h (0 Bft)
27.06.2013 08:25 12,0 C 21,7 C 12,2 C 13,9 C 13,9 C 1,9 C 82 % 82 % 50 % 1021,2 hPa 0,0 l/m 0,2 km/h (0 Bft) SW 225 0 min 0,0 UV-I 9,0 C 13,9 C 1,9 km/h (1 Bft)
27.06.2013 08:30 12,2 C 21,7 C 12,4 C 14,1 C 14,1 C 1,9 C 82 % 82 % 50 % 1021,2 hPa 0,0 l/m 0,5 km/h (0 Bft) O-NO 67 0 min 0,0 UV-I 9,2 C 14,1 C 0,0 km/h (0 Bft)
27.06.2013 08:35 12,3 C 21,7 C 12,5 C 14,2 C 14,2 C 1,9 C 81 % 82 % 50 % 1020,9 hPa 0,0 l/m 0,8 km/h (0 Bft) O-SO 112 0 min 0,0 UV-I 9,1 C 14,2 C 0,0 km/h (0 Bft)
27.06.2013 08:40 12,5 C 21,7 C 12,5 C 14,4 C 14,4 C 1,9 C 81 % 82 % 50 % 1020,9 hPa 0,0 l/m 0,3 km/h (0 Bft) S-SW 202 0 min 0,0 UV-I 9,3 C 14,4 C 0,0 km/h (0 Bft)
27.06.2013 08:45 12,5 C 21,7 C 12,7 C 14,6 C 14,6 C 2,1 C 81 % 82 % 55 % 1020,9 hPa 0,0 l/m 0,0 km/h (0 Bft) S-SW 202 0 min 0,0 UV-I 9,3 C 14,6 C 0,0 km/h (0 Bft)
27.06.2013 08:50 12,8 C 21,6 C 12,9 C 16,7 C 16,7 C 3,9 C 81 % 82 % 100 % 1020,9 hPa 0,0 l/m 0,2 km/h (0 Bft) NW 315 5 min 0,0 UV-I 9,6 C 16,7 C 1,9 km/h (1 Bft)
27.06.2013 08:55 13,1 C 21,6 C 13,1 C 18,3 C 18,3 C 5,2 C 80 % 82 % 100 % 1021,1 hPa 0,0 l/m 0,6 km/h (0 Bft) O-SO 112 5 min 0,0 UV-I 9,7 C 18,3 C 2,3 km/h (1 Bft)
27.06.2013 09:00 13,5 C 21,6 C 13,3 C 19,0 C 19,0 C 5,5 C 79 % 81 % 100 % 1021,1 hPa 0,0 l/m 0,6 km/h (0 Bft) O-SO 112 5 min 0,0 UV-I 9,9 C 19,0 C 0,0 km/h (0 Bft)
27.06.2013 09:05 13,7 C 21,6 C 13,3 C 18,8 C 18,8 C 5,1 C 79 % 81 % 100 % 1021,1 hPa 0,0 l/m 0,3 km/h (0 Bft) S-SW 202 5 min 0,0 UV-I 10,1 C 18,8 C 0,0 km/h (0 Bft)
27.06.2013 09:10 14,1 C 21,6 C 13,5 C 19,3 C 19,3 C 5,2 C 78 % 81 % 100 % 1021,1 hPa 0,0 l/m 0,3 km/h (0 Bft) S 180 5 min 0,0 UV-I 10,3 C 19,3 C 0,0 km/h (0 Bft)
27.06.2013 09:15 14,3 C 21,6 C 13,4 C 18,8 C 18,8 C 4,5 C 77 % 80 % 100 % 1021,0 hPa 0,0 l/m 0,6 km/h (0 Bft) NW 315 5 min 0,0 UV-I 10,3 C 18,8 C 1,8 km/h (1 Bft)
27.06.2013 09:20 14,3 C 21,6 C 13,4 C 17,8 C 17,8 C 3,5 C 76 % 80 % 92 % 1021,0 hPa 0,0 l/m 1,3 km/h (1 Bft) S 180 5 min 0,0 UV-I 10,1 C 17,8 C 4,2 km/h (1 Bft)
27.06.2013 09:25 14,3 C 21,6 C 13,5 C 17,6 C 17,6 C 3,3 C 76 % 80 % 87 % 1021,0 hPa 0,0 l/m 1,6 km/h (1 Bft) S 180 5 min 0,0 UV-I 10,1 C 17,6 C 1,6 km/h (1 Bft)
27.06.2013 09:30 14,5 C 21,6 C 13,5 C 17,1 C 17,1 C 2,6 C 76 % 79 % 68 % 1021,0 hPa 0,0 l/m 1,1 km/h (1 Bft) S 180 0 min 0,0 UV-I 10,3 C 17,1 C 0,0 km/h (0 Bft)
27.06.2013 09:35 14,4 C 21,6 C 13,5 C 16,7 C 16,7 C 2,3 C 75 % 79 % 61 % 1021,1 hPa 0,0 l/m 0,6 km/h (0 Bft) SW 225 0 min 0,0 UV-I 10,0 C 16,7 C 0,0 km/h (0 Bft)
27.06.2013 09:40 14,4 C 21,6 C 13,4 C 16,5 C 16,5 C 2,1 C 75 % 79 % 55 % 1021,1 hPa 0,0 l/m 0,3 km/h (0 Bft) SW 225 0 min 0,0 UV-I 10,0 C 16,5 C 0,0 km/h (0 Bft)
27.06.2013 09:45 14,4 C 21,6 C 13,5 C 16,6 C 16,6 C 2,2 C 75 % 79 % 58 % 1021,1 hPa 0,0 l/m 0,5 km/h (0 Bft) SW 225 0 min 0,0 UV-I 10,0 C 16,6 C 5,6 km/h (1 Bft)
27.06.2013 09:50 14,4 C 21,6 C 13,6 C 16,7 C 16,7 C 2,3 C 75 % 79 % 61 % 1021,1 hPa 0,0 l/m 0,8 km/h (0 Bft) S-SO 157 0 min 0,0 UV-I 10,0 C 16,7 C 0,0 km/h (0 Bft)
27.06.2013 09:55 14,6 C 21,6 C 13,7 C 17,1 C 17,1 C 2,5 C 75 % 79 % 66 % 1021,1 hPa 0,0 l/m 0,8 km/h (0 Bft) W-SW 247 0 min 0,0 UV-I 10,2 C 17,1 C 0,0 km/h (0 Bft)
27.06.2013 10:00 14,9 C 21,6 C 14,0 C 18,0 C 18,0 C 3,1 C 74 % 79 % 82 % 1021,1 hPa 0,0 l/m 2,1 km/h (1 Bft) SW 225 0 min 0,0 UV-I 10,3 C 18,0 C 6,6 km/h (2 Bft)
27.06.2013 10:05 14,8 C 21,6 C 14,1 C 17,8 C 17,8 C 3,0 C 73 % 79 % 79 % 1021,1 hPa 0,0 l/m 2,4 km/h (1 Bft) NW 315 0 min 0,0 UV-I 10,0 C 17,8 C 0,0 km/h (0 Bft)
27.06.2013 10:10 14,9 C 21,6 C 14,3 C 18,1 C 18,1 C 3,2 C 74 % 78 % 84 % 1021,1 hPa 0,0 l/m 1,6 km/h (1 Bft) SO 135 0 min 0,0 UV-I 10,3 C 18,1 C 0,0 km/h (0 Bft)
27.06.2013 10:15 15,2 C 21,6 C 14,3 C 19,1 C 19,1 C 3,9 C 74 % 78 % 100 % 1020,9 hPa 0,0 l/m 0,5 km/h (0 Bft) W 270 5 min 0,0 UV-I 10,6 C 19,1 C 1,6 km/h (1 Bft)
27.06.2013 10:20 15,5 C 21,6 C 14,4 C 19,1 C 19,1 C 3,6 C 73 % 77 % 95 % 1020,9 hPa 0,0 l/m 1,3 km/h (1 Bft) SW 225 5 min 0,0 UV-I 10,7 C 19,1 C 3,9 km/h (1 Bft)
27.06.2013 10:25 15,5 C 21,6 C 14,5 C 18,8 C 18,8 C 3,3 C 72 % 78 % 87 % 1020,9 hPa 0,0 l/m 1,9 km/h (1 Bft) SO 135 5 min 0,0 UV-I 10,5 C 18,8 C 0,0 km/h (0 Bft)
27.06.2013 10:30 15,6 C 21,6 C 14,7 C 19,5 C 19,5 C 3,9 C 72 % 77 % 100 % 1020,9 hPa 0,0 l/m 1,0 km/h (0 Bft) W-SW 247 5 min 0,0 UV-I 10,6 C 19,5 C 6,9 km/h (2 Bft)
27.06.2013 10:35 15,7 C 21,6 C 14,6 C 19,9 C 19,9 C 4,2 C 71 % 77 % 100 % 1020,9 hPa 0,0 l/m 0,5 km/h (0 Bft) O 90 5 min 0,0 UV-I 10,5 C 19,9 C 1,6 km/h (1 Bft)
27.06.2013 10:40 15,7 C 21,6 C 14,6 C 20,6 C 20,6 C 4,9 C 71 % 77 % 100 % 1020,9 hPa 0,0 l/m 1,0 km/h (0 Bft) SO 135 5 min 0,0 UV-I 10,5 C 20,6 C 0,0 km/h (0 Bft)
27.06.2013 10:45 15,9 C 21,6 C 14,6 C 20,0 C 20,0 C 4,1 C 71 % 77 % 100 % 1020,9 hPa 0,0 l/m 0,8 km/h (0 Bft) S 180 5 min 0,0 UV-I 10,6 C 20,0 C 3,5 km/h (1 Bft)
27.06.2013 10:50 15,7 C 21,6 C 14,7 C 18,9 C 18,9 C 3,2 C 71 % 76 % 84 % 1020,9 hPa 0,0 l/m 0,6 km/h (0 Bft) SO 135 0 min 0,0 UV-I 10,5 C 18,9 C 0,0 km/h (0 Bft)
27.06.2013 10:55 15,8 C 21,7 C 14,7 C 19,3 C 19,3 C 3,5 C 71 % 76 % 92 % 1020,8 hPa 0,0 l/m 0,8 km/h (0 Bft) O-NO 67 5 min 0,0 UV-I 10,6 C 19,3 C 0,0 km/h (0 Bft)
27.06.2013 11:00 15,9 C 21,7 C 14,7 C 18,9 C 18,9 C 3,0 C 71 % 76 % 79 % 1020,8 hPa 0,0 l/m 1,1 km/h (1 Bft) S 180 0 min 0,0 UV-I 10,6 C 18,9 C 7,2 km/h (2 Bft)
27.06.2013 11:05 15,9 C 21,7 C 14,8 C 19,5 C 19,5 C 3,6 C 71 % 76 % 95 % 1020,8 hPa 0,0 l/m 1,0 km/h (0 Bft) W-SW 247 5 min 0,0 UV-I 10,6 C 19,5 C 0,0 km/h (0 Bft)
27.06.2013 11:10 16,0 C 21,7 C 14,9 C 19,6 C 19,6 C 3,6 C 71 % 76 % 95 % 1020,8 hPa 0,0 l/m 0,8 km/h (0 Bft) W-SW 247 5 min 0,0 UV-I 10,7 C 19,6 C 1,9 km/h (1 Bft)
27.06.2013 11:15 16,0 C 21,7 C 14,9 C 19,3 C 19,3 C 3,3 C 70 % 76 % 87 % 1020,8 hPa 0,0 l/m 1,4 km/h (1 Bft) W-SW 247 5 min 0,0 UV-I 10,5 C 19,3 C 3,7 km/h (1 Bft)
27.06.2013 11:20 16,0 C 21,7 C 15,1 C 19,1 C 19,1 C 3,1 C 70 % 76 % 82 % 1020,8 hPa 0,0 l/m 1,3 km/h (1 Bft) O 90 0 min 0,0 UV-I 10,5 C 19,1 C 0,0 km/h (0 Bft)
27.06.2013 11:25 16,1 C 21,6 C 15,2 C 19,7 C 19,7 C 3,6 C 70 % 76 % 95 % 1020,8 hPa 0,0 l/m 0,6 km/h (0 Bft) W-SW 247 5 min 0,0 UV-I 10,6 C 19,7 C 0,0 km/h (0 Bft)
27.06.2013 11:30 16,5 C 21,6 C 15,5 C 20,7 C 20,7 C 4,2 C 69 % 76 % 100 % 1020,8 hPa 0,0 l/m 1,8 km/h (1 Bft) S 180 5 min 0,0 UV-I 10,8 C 20,7 C 5,1 km/h (1 Bft)
27.06.2013 11:35 16,4 C 21,6 C 15,3 C 20,5 C 20,5 C 4,1 C 69 % 76 % 100 % 1020,8 hPa 0,0 l/m 2,4 km/h (1 Bft) N 360 5 min 0,0 UV-I 10,7 C 20,5 C 2,4 km/h (1 Bft)
27.06.2013 11:40 16,4 C 21,6 C 15,3 C 19,6 C 19,6 C 3,2 C 68 % 76 % 84 % 1020,8 hPa 0,0 l/m 2,7 km/h (1 Bft) S 180 0 min 0,0 UV-I 10,5 C 19,6 C 3,5 km/h (1 Bft)
27.06.2013 11:45 16,5 C 21,6 C 15,4 C 19,4 C 19,4 C 2,9 C 68 % 76 % 76 % 1020,8 hPa 0,0 l/m 2,6 km/h (1 Bft) S 180 0 min 0,0 UV-I 10,6 C 19,4 C 0,0 km/h (0 Bft)
27.06.2013 11:50 16,6 C 21,6 C 15,3 C 19,1 C 19,1 C 2,5 C 68 % 76 % 66 % 1020,8 hPa 0,0 l/m 1,3 km/h (1 Bft) O-NO 67 0 min 0,0 UV-I 10,7 C 19,1 C 0,0 km/h (0 Bft)
27.06.2013 11:55 16,6 C 21,6 C 15,1 C 18,2 C 18,2 C 1,6 C 69 % 76 % 42 % 1020,9 hPa 0,0 l/m 0,6 km/h (0 Bft) S-SW 202 0 min 0,0 UV-I 10,9 C 18,2 C 3,7 km/h (1 Bft)
27.06.2013 12:00 15,8 C 21,7 C 14,5 C 15,8 C 15,8 C 0,0 C 70 % 77 % 0 % 1020,9 hPa 0,0 l/m 3,4 km/h (1 Bft) SW 225 0 min 0,0 UV-I 10,3 C 15,8 C 14,6 km/h (3 Bft)
27.06.2013 12:05 15,5 C 21,8 C 14,0 C 15,3 C 14,8 C 0,0 C 71 % 77 % 0 % 1020,9 hPa 0,0 l/m 4,3 km/h (1 Bft) W-SW 247 0 min 0,0 UV-I 10,3 C 14,8 C 4,2 km/h (1 Bft)
27.06.2013 12:10 14,3 C 22,3 C 13,5 C 13,8 C 12,8 C 0,0 C 75 % 82 % 0 % 1020,9 hPa 0,0 l/m 3,5 km/h (1 Bft) W-SW 247 0 min 0,0 UV-I 9,9 C 12,8 C 3,4 km/h (1 Bft)
27.06.2013 12:15 13,9 C 22,3 C 13,2 C 13,4 C 12,5 C 0,0 C 76 % 82 % 0 % 1021,1 hPa 0,0 l/m 1,6 km/h (1 Bft) O-NO 67 0 min 0,0 UV-I 9,7 C 12,5 C 0,0 km/h (0 Bft)
27.06.2013 12:20 13,4 C 22,3 C 12,9 C 13,0 C 12,1 C 0,0 C 78 % 83 % 0 % 1021,1 hPa 0,0 l/m 0,8 km/h (0 Bft) SW 225 0 min 0,0 UV-I 9,6 C 12,1 C 0,0 km/h (0 Bft)
27.06.2013 12:25 13,2 C 22,3 C 12,8 C 12,9 C 12,2 C 0,0 C 79 % 84 % 0 % 1021,1 hPa 0,0 l/m 0,6 km/h (0 Bft) O-NO 67 0 min 0,0 UV-I 9,6 C 12,2 C 2,1 km/h (1 Bft)
27.06.2013 12:30 13,0 C 22,3 C 12,9 C 12,8 C 12,3 C 0,0 C 81 % 84 % 0 % 1021,1 hPa 0,7 l/m 0,3 km/h (0 Bft) O-NO 67 0 min 0,0 UV-I 9,8 C 12,3 C 1,6 km/h (1 Bft)
27.06.2013 12:35 12,9 C 22,3 C 12,9 C 12,8 C 12,5 C 0,0 C 82 % 85 % 0 % 1020,8 hPa 0,0 l/m 0,3 km/h (0 Bft) W-SW 247 0 min 0,0 UV-I 9,9 C 12,5 C 0,0 km/h (0 Bft)
27.06.2013 12:41 12,7 C 22,3 C 13,2 C 13,1 C 13,1 C 0,4 C 83 % 85 % 11 % 1020,8 hPa 0,0 l/m 0,0 km/h (0 Bft) N 0 0 min 0,0 UV-I 9,9 C 13,1 C 0,0 km/h (0 Bft)
27.06.2013 13:00 12,9 C 22,3 C 13,3 C 15,2 C 15,2 C 2,3 C 84 % 85 % 61 % 1020,8 hPa 0,0 l/m 0,3 km/h (0 Bft) W-SW 247 0 min 0,0 UV-I 10,3 C 15,2 C 0,0 km/h (0 Bft)
27.06.2013 13:05 12,9 C 22,3 C 13,5 C 15,1 C 15,1 C 2,2 C 84 % 86 % 58 % 1020,8 hPa 0,0 l/m 1,0 km/h (0 Bft) W-SW 247 0 min 0,0 UV-I 10,3 C 15,1 C 1,6 km/h (1 Bft)
27.06.2013 13:10 13,1 C 22,3 C 13,6 C 15,3 C 15,3 C 2,2 C 84 % 86 % 58 % 1020,8 hPa 0,7 l/m 0,8 km/h (0 Bft) SW 225 0 min 0,0 UV-I 10,5 C 15,3 C 0,0 km/h (0 Bft)
27.06.2013 13:15 13,2 C 22,3 C 13,7 C 15,9 C 15,9 C 2,7 C 84 % 86 % 71 % 1020,8 hPa 0,0 l/m 1,0 km/h (0 Bft) SW 225 0 min 0,0 UV-I 10,6 C 15,9 C 2,6 km/h (1 Bft)
27.06.2013 13:20 13,5 C 22,3 C 13,5 C 15,8 C 15,8 C 2,3 C 82 % 86 % 61 % 1020,8 hPa 0,0 l/m 3,2 km/h (1 Bft) N-NW 337 0 min 0,0 UV-I 10,5 C 15,8 C 3,5 km/h (1 Bft)
27.06.2013 13:25 13,3 C 22,3 C 13,2 C 15,1 C 15,1 C 1,8 C 82 % 86 % 47 % 1020,8 hPa 0,0 l/m 3,7 km/h (1 Bft) W-SW 247 0 min 0,0 UV-I 10,3 C 15,1 C 2,1 km/h (1 Bft)
27.06.2013 13:30 13,2 C 22,3 C 13,3 C 14,3 C 14,3 C 1,1 C 82 % 86 % 29 % 1020,8 hPa 0,0 l/m 2,3 km/h (1 Bft) W-SW 247 0 min 0,0 UV-I 10,2 C 14,3 C 0,0 km/h (0 Bft)
27.06.2013 13:35 13,2 C 22,3 C 13,0 C 13,9 C 13,9 C 0,7 C 82 % 86 % 18 % 1020,8 hPa 0,7 l/m 1,4 km/h (1 Bft) S-SO 157 0 min 0,0 UV-I 10,2 C 13,9 C 0,0 km/h (0 Bft)
27.06.2013 13:40 13,0 C 22,3 C 13,1 C 13,7 C 13,7 C 0,7 C 83 % 86 % 18 % 1020,8 hPa 0,0 l/m 0,0 km/h (0 Bft) O 90 0 min 0,0 UV-I 10,2 C 13,7 C 0,0 km/h (0 Bft)
27.06.2013 13:45 12,9 C 22,3 C 12,8 C 13,5 C 13,5 C 0,6 C 83 % 86 % 16 % 1020,8 hPa 0,0 l/m 0,0 km/h (0 Bft) SO 135 0 min 0,0 UV-I 10,1 C 13,5 C 0,0 km/h (0 Bft)
27.06.2013 13:50 12,9 C 22,3 C 12,8 C 13,5 C 13,5 C 0,6 C 83 % 86 % 16 % 1020,8 hPa 0,0 l/m 0,0 km/h (0 Bft) SO 135 0 min 0,0 UV-I 10,1 C 13,5 C 0,0 km/h (0 Bft)
27.06.2013 13:55 12,8 C 22,3 C 12,8 C 13,5 C 13,5 C 0,7 C 82 % 86 % 18 % 1020,8 hPa 0,0 l/m 0,0 km/h (0 Bft) SO 135 0 min 0,0 UV-I 9,8 C 13,5 C 0,0 km/h (0 Bft)
27.06.2013 14:00 12,7 C 22,3 C 12,8 C 13,5 C 13,5 C 0,8 C 83 % 86 % 21 % 1020,8 hPa 0,0 l/m 0,0 km/h (0 Bft) SO 135 0 min 0,0 UV-I 9,9 C 13,5 C 0,0 km/h (0 Bft)
27.06.2013 14:05 12,7 C 22,3 C 12,7 C 13,6 C 13,6 C 0,9 C 83 % 86 % 24 % 1020,8 hPa 0,0 l/m 0,0 km/h (0 Bft) O-SO 112 0 min 0,0 UV-I 9,9 C 13,6 C 0,0 km/h (0 Bft)
27.06.2013 14:10 12,7 C 22,4 C 12,9 C 13,7 C 13,7 C 1,0 C 83 % 86 % 26 % 1020,8 hPa 0,0 l/m 0,2 km/h (0 Bft) W 270 0 min 0,0 UV-I 9,9 C 13,7 C 0,0 km/h (0 Bft)
27.06.2013 14:15 12,7 C 22,4 C 12,8 C 13,9 C 13,9 C 1,2 C 83 % 86 % 32 % 1020,7 hPa 0,0 l/m 0,2 km/h (0 Bft) S-SW 202 0 min 0,0 UV-I 9,9 C 13,9 C 0,0 km/h (0 Bft)
27.06.2013 14:20 12,7 C 22,4 C 12,8 C 14,2 C 14,2 C 1,5 C 84 % 86 % 39 % 1020,7 hPa 0,7 l/m 0,0 km/h (0 Bft) NO 45 0 min 0,0 UV-I 10,1 C 14,2 C 0,0 km/h (0 Bft)
27.06.2013 14:25 12,7 C 22,4 C 12,9 C 14,3 C 14,3 C 1,6 C 83 % 87 % 42 % 1020,7 hPa 0,0 l/m 0,0 km/h (0 Bft) O-NO 67 0 min 0,0 UV-I 9,9 C 14,3 C 0,0 km/h (0 Bft)
27.06.2013 14:30 12,7 C 22,4 C 12,8 C 14,5 C 14,5 C 1,8 C 83 % 87 % 47 % 1020,7 hPa 0,0 l/m 0,0 km/h (0 Bft) O-SO 112 0 min 0,0 UV-I 9,9 C 14,5 C 0,0 km/h (0 Bft)
27.06.2013 14:35 12,8 C 22,4 C 12,9 C 14,9 C 14,9 C 2,1 C 83 % 87 % 55 % 1020,6 hPa 0,0 l/m 0,0 km/h (0 Bft) SO 135 0 min 0,0 UV-I 10,0 C 14,9 C 0,0 km/h (0 Bft)
27.06.2013 14:40 12,8 C 22,4 C 12,9 C 15,3 C 15,3 C 2,5 C 84 % 87 % 66 % 1020,6 hPa 0,0 l/m 0,0 km/h (0 Bft) S 180 0 min 0,0 UV-I 10,2 C 15,3 C 0,0 km/h (0 Bft)
27.06.2013 14:45 12,9 C 22,4 C 13,0 C 15,6 C 15,6 C 2,7 C 84 % 87 % 71 % 1020,6 hPa 0,7 l/m 0,0 km/h (0 Bft) O 90 0 min 0,0 UV-I 10,3 C 15,6 C 0,0 km/h (0 Bft)
27.06.2013 14:50 13,2 C 22,4 C 13,3 C 16,0 C 16,0 C 2,8 C 84 % 87 % 74 % 1020,6 hPa 0,0 l/m 0,0 km/h (0 Bft) SO 135 0 min 0,0 UV-I 10,6 C 16,0 C 0,0 km/h (0 Bft)
27.06.2013 14:55 13,2 C 22,4 C 13,3 C 16,0 C 16,0 C 2,8 C 84 % 87 % 74 % 1020,4 hPa 0,0 l/m 0,0 km/h (0 Bft) O 90 0 min 0,0 UV-I 10,6 C 16,0 C 0,0 km/h (0 Bft)
27.06.2013 15:00 13,4 C 22,3 C 13,5 C 16,3 C 16,3 C 2,9 C 84 % 87 % 76 % 1020,4 hPa 0,0 l/m 0,0 km/h (0 Bft) N-NO 22 0 min 0,0 UV-I 10,8 C 16,3 C 0,0 km/h (0 Bft)
27.06.2013 15:05 13,5 C 22,3 C 13,6 C 16,5 C 16,5 C 3,0 C 84 % 87 % 79 % 1020,4 hPa 0,0 l/m 0,0 km/h (0 Bft) O 90 0 min 0,0 UV-I 10,8 C 16,5 C 0,0 km/h (0 Bft)
27.06.2013 15:10 13,9 C 22,3 C 13,7 C 16,9 C 16,9 C 3,0 C 83 % 87 % 79 % 1020,4 hPa 0,0 l/m 0,0 km/h (0 Bft) NW 315 0 min 0,0 UV-I 11,1 C 16,9 C 0,0 km/h (0 Bft)
27.06.2013 15:15 14,0 C 22,4 C 13,8 C 17,0 C 17,0 C 3,0 C 83 % 87 % 79 % 1019,9 hPa 0,0 l/m 0,0 km/h (0 Bft) O-SO 112 0 min 0,0 UV-I 11,2 C 17,0 C 0,0 km/h (0 Bft)
27.06.2013 15:20 14,3 C 22,3 C 13,9 C 17,2 C 17,2 C 2,9 C 83 % 87 % 76 % 1019,9 hPa 0,0 l/m 0,0 km/h (0 Bft) N-NO 22 0 min 0,0 UV-I 11,5 C 17,2 C 0,0 km/h (0 Bft)
27.06.2013 15:25 14,4 C 22,3 C 14,0 C 17,2 C 17,2 C 2,8 C 82 % 87 % 74 % 1019,9 hPa 0,7 l/m 0,0 km/h (0 Bft) SO 135 0 min 0,0 UV-I 11,4 C 17,2 C 0,0 km/h (0 Bft)
27.06.2013 15:30 14,6 C 22,2 C 14,1 C 17,6 C 17,6 C 3,0 C 82 % 87 % 79 % 1019,9 hPa 0,0 l/m 0,0 km/h (0 Bft) N-NW 337 0 min 0,0 UV-I 11,6 C 17,6 C 0,0 km/h (0 Bft)
27.06.2013 15:35 14,7 C 22,3 C 14,3 C 17,6 C 17,6 C 2,9 C 82 % 87 % 76 % 1019,9 hPa 0,0 l/m 0,0 km/h (0 Bft) SO 135 0 min 0,0 UV-I 11,7 C 17,6 C 0,0 km/h (0 Bft)
27.06.2013 15:40 15,1 C 22,4 C 14,3 C 17,7 C 17,7 C 2,6 C 80 % 86 % 68 % 1019,9 hPa 0,0 l/m 0,0 km/h (0 Bft) O-NO 67 0 min 0,0 UV-I 11,7 C 17,7 C 0,0 km/h (0 Bft)
27.06.2013 15:45 15,1 C 22,3 C 14,2 C 17,6 C 17,6 C 2,5 C 80 % 86 % 66 % 1019,9 hPa 0,0 l/m 0,0 km/h (0 Bft) W 270 0 min 0,0 UV-I 11,7 C 17,6 C 0,0 km/h (0 Bft)
27.06.2013 15:50 15,3 C 22,2 C 14,5 C 17,7 C 17,7 C 2,4 C 80 % 87 % 63 % 1019,9 hPa 0,0 l/m 0,2 km/h (0 Bft) S-SO 157 0 min 0,0 UV-I 11,9 C 17,7 C 0,0 km/h (0 Bft)
27.06.2013 15:55 15,3 C 22,2 C 14,5 C 17,9 C 17,9 C 2,6 C 80 % 87 % 68 % 1019,9 hPa 0,0 l/m 0,2 km/h (0 Bft) O-NO 67 0 min 0,0 UV-I 11,9 C 17,9 C 0,0 km/h (0 Bft)
27.06.2013 16:00 15,6 C 22,2 C 14,5 C 18,0 C 18,0 C 2,4 C 79 % 87 % 63 % 1019,9 hPa 0,7 l/m 0,2 km/h (0 Bft) SO 135 0 min 0,0 UV-I 12,0 C 18,0 C 0,0 km/h (0 Bft)
27.06.2013 16:05 15,7 C 22,2 C 14,5 C 18,2 C 18,2 C 2,5 C 79 % 87 % 66 % 1019,9 hPa 0,0 l/m 0,2 km/h (0 Bft) N 360 0 min 0,0 UV-I 12,1 C 18,2 C 0,0 km/h (0 Bft)
27.06.2013 16:10 15,8 C 22,2 C 14,7 C 18,2 C 18,2 C 2,4 C 79 % 87 % 63 % 1019,9 hPa 0,0 l/m 0,3 km/h (0 Bft) S 180 0 min 0,0 UV-I 12,2 C 18,2 C 0,0 km/h (0 Bft)
27.06.2013 16:15 16,0 C 22,1 C 14,7 C 18,2 C 18,2 C 2,2 C 78 % 86 % 58 % 1019,6 hPa 0,0 l/m 0,3 km/h (0 Bft) S 180 0 min 0,0 UV-I 12,2 C 18,2 C 0,0 km/h (0 Bft)
27.06.2013 16:20 16,2 C 22,3 C 14,6 C 18,3 C 18,3 C 2,1 C 78 % 86 % 55 % 1019,6 hPa 0,0 l/m 0,2 km/h (0 Bft) NO 45 0 min 0,0 UV-I 12,4 C 18,3 C 0,0 km/h (0 Bft)
27.06.2013 16:25 16,3 C 22,1 C 14,7 C 18,3 C 18,3 C 2,0 C 77 % 86 % 53 % 1019,6 hPa 0,0 l/m 0,0 km/h (0 Bft) W-SW 247 0 min 0,0 UV-I 12,3 C 18,3 C 0,0 km/h (0 Bft)
27.06.2013 16:30 16,4 C 22,1 C 14,7 C 18,2 C 18,2 C 1,8 C 77 % 86 % 47 % 1019,6 hPa 0,0 l/m 0,0 km/h (0 Bft) S-SO 157 0 min 0,0 UV-I 12,4 C 18,2 C 0,0 km/h (0 Bft)
27.06.2013 16:35 16,5 C 22,2 C 14,8 C 18,2 C 18,2 C 1,7 C 76 % 86 % 45 % 1019,8 hPa 0,0 l/m 0,2 km/h (0 Bft) S-SW 202 0 min 0,0 UV-I 12,3 C 18,2 C 2,6 km/h (1 Bft)
27.06.2013 16:40 16,4 C 22,1 C 14,8 C 18,0 C 18,0 C 1,6 C 75 % 86 % 42 % 1019,8 hPa 0,0 l/m 0,3 km/h (0 Bft) SW 225 0 min 0,0 UV-I 12,0 C 18,0 C 0,0 km/h (0 Bft)
27.06.2013 16:45 16,4 C 22,2 C 14,8 C 18,0 C 18,0 C 1,6 C 76 % 86 % 42 % 1019,8 hPa 0,0 l/m 0,3 km/h (0 Bft) N-NO 22 0 min 0,0 UV-I 12,2 C 18,0 C 0,0 km/h (0 Bft)
27.06.2013 16:50 16,5 C 22,1 C 14,7 C 17,7 C 17,7 C 1,2 C 75 % 86 % 32 % 1019,8 hPa 0,0 l/m 1,3 km/h (1 Bft) S 180 0 min 0,0 UV-I 12,1 C 17,7 C 6,1 km/h (2 Bft)
27.06.2013 16:55 16,3 C 22,1 C 14,5 C 17,2 C 17,2 C 0,9 C 72 % 85 % 24 % 1020,0 hPa 0,0 l/m 3,4 km/h (1 Bft) W 270 0 min 0,0 UV-I 11,2 C 17,2 C 6,0 km/h (2 Bft)
27.06.2013 17:00 15,8 C 22,0 C 14,3 C 16,7 C 16,7 C 0,9 C 72 % 85 % 24 % 1020,0 hPa 0,0 l/m 5,1 km/h (1 Bft) W-NW 292 0 min 0,0 UV-I 10,8 C 16,7 C 6,1 km/h (2 Bft)
27.06.2013 17:05 15,7 C 22,1 C 14,4 C 16,5 C 16,5 C 0,8 C 73 % 85 % 21 % 1020,0 hPa 0,0 l/m 4,0 km/h (1 Bft) SW 225 0 min 0,0 UV-I 10,9 C 16,5 C 3,7 km/h (1 Bft)
27.06.2013 17:10 15,6 C 22,1 C 14,5 C 16,5 C 16,5 C 0,9 C 73 % 85 % 24 % 1020,0 hPa 0,0 l/m 3,4 km/h (1 Bft) S-SO 157 0 min 0,0 UV-I 10,8 C 16,5 C 3,7 km/h (1 Bft)
27.06.2013 17:15 15,5 C 22,1 C 14,5 C 16,6 C 16,6 C 1,1 C 73 % 85 % 29 % 1019,8 hPa 0,0 l/m 2,7 km/h (1 Bft) SW 225 0 min 0,0 UV-I 10,7 C 16,6 C 2,7 km/h (1 Bft)
27.06.2013 17:20 15,5 C 22,0 C 14,5 C 16,8 C 16,8 C 1,3 C 73 % 85 % 34 % 1019,8 hPa 0,0 l/m 2,6 km/h (1 Bft) W-SW 247 0 min 0,0 UV-I 10,7 C 16,8 C 6,3 km/h (2 Bft)
27.06.2013 17:25 15,3 C 22,0 C 14,5 C 16,7 C 16,7 C 1,4 C 72 % 85 % 37 % 1019,8 hPa 0,0 l/m 2,6 km/h (1 Bft) SW 225 0 min 0,0 UV-I 10,3 C 16,7 C 4,8 km/h (1 Bft)
27.06.2013 17:30 15,3 C 22,1 C 14,4 C 16,5 C 16,5 C 1,2 C 72 % 85 % 32 % 1019,8 hPa 0,0 l/m 2,4 km/h (1 Bft) W-SW 247 0 min 0,0 UV-I 10,3 C 16,5 C 2,1 km/h (1 Bft)
27.06.2013 17:35 15,3 C 22,0 C 14,5 C 16,5 C 16,5 C 1,2 C 73 % 85 % 32 % 1019,9 hPa 0,0 l/m 2,1 km/h (1 Bft) S 180 0 min 0,0 UV-I 10,5 C 16,5 C 0,0 km/h (0 Bft)
27.06.2013 17:40 15,3 C 22,1 C 14,4 C 16,5 C 16,5 C 1,2 C 73 % 85 % 32 % 1019,9 hPa 0,0 l/m 1,3 km/h (1 Bft) S-SW 202 0 min 0,0 UV-I 10,5 C 16,5 C 0,0 km/h (0 Bft)
27.06.2013 17:45 15,3 C 22,1 C 14,4 C 16,5 C 16,5 C 1,2 C 73 % 85 % 32 % 1019,9 hPa 0,0 l/m 0,5 km/h (0 Bft) SW 225 0 min 0,0 UV-I 10,5 C 16,5 C 0,0 km/h (0 Bft)
27.06.2013 17:50 15,3 C 22,1 C 14,4 C 16,5 C 16,5 C 1,2 C 72 % 85 % 32 % 1019,9 hPa 0,0 l/m 0,2 km/h (0 Bft) W-SW 247 0 min 0,0 UV-I 10,3 C 16,5 C 1,6 km/h (1 Bft)
27.06.2013 17:55 15,4 C 22,1 C 14,5 C 16,6 C 16,6 C 1,2 C 73 % 85 % 32 % 1019,8 hPa 0,0 l/m 0,2 km/h (0 Bft) S 180 0 min 0,0 UV-I 10,6 C 16,6 C 0,0 km/h (0 Bft)
27.06.2013 18:00 15,5 C 22,1 C 14,6 C 16,7 C 16,7 C 1,2 C 74 % 85 % 32 % 1019,8 hPa 0,0 l/m 0,0 km/h (0 Bft) W-SW 247 0 min 0,0 UV-I 10,9 C 16,7 C 0,0 km/h (0 Bft)
27.06.2013 18:05 15,6 C 22,1 C 14,7 C 16,9 C 16,9 C 1,3 C 73 % 85 % 34 % 1019,8 hPa 0,0 l/m 0,2 km/h (0 Bft) SO 135 0 min 0,0 UV-I 10,8 C 16,9 C 0,0 km/h (0 Bft)
27.06.2013 18:10 15,6 C 22,1 C 14,8 C 17,3 C 17,3 C 1,7 C 73 % 85 % 45 % 1019,8 hPa 0,0 l/m 0,2 km/h (0 Bft) S 180 0 min 0,0 UV-I 10,8 C 17,3 C 0,0 km/h (0 Bft)
27.06.2013 18:15 15,8 C 22,1 C 14,9 C 17,7 C 17,7 C 1,9 C 73 % 85 % 50 % 1019,8 hPa 0,0 l/m 0,5 km/h (0 Bft) SW 225 0 min 0,0 UV-I 11,0 C 17,7 C 2,4 km/h (1 Bft)
27.06.2013 18:20 16,0 C 22,1 C 14,8 C 17,8 C 17,8 C 1,8 C 73 % 85 % 47 % 1019,8 hPa 0,0 l/m 0,6 km/h (0 Bft) W-SW 247 0 min 0,0 UV-I 11,2 C 17,8 C 2,3 km/h (1 Bft)
27.06.2013 18:25 16,0 C 22,1 C 14,9 C 17,7 C 17,7 C 1,7 C 73 % 85 % 45 % 1019,8 hPa 0,0 l/m 1,0 km/h (0 Bft) S 180 0 min 0,0 UV-I 11,2 C 17,7 C 5,5 km/h (1 Bft)
27.06.2013 18:30 15,8 C 22,1 C 14,9 C 17,3 C 17,3 C 1,5 C 71 % 85 % 39 % 1019,8 hPa 0,0 l/m 2,6 km/h (1 Bft) S 180 0 min 0,0 UV-I 10,6 C 17,3 C 5,6 km/h (1 Bft)
27.06.2013 18:35 15,8 C 22,1 C 14,8 C 16,9 C 16,9 C 1,1 C 72 % 85 % 29 % 1019,9 hPa 0,0 l/m 2,7 km/h (1 Bft) S-SW 202 0 min 0,0 UV-I 10,8 C 16,9 C 0,0 km/h (0 Bft)
27.06.2013 18:41 15,6 C 22,1 C 14,8 C 16,5 C 16,5 C 0,9 C 72 % 85 % 24 % 1019,9 hPa 0,0 l/m 1,9 km/h (1 Bft) N 0 0 min 0,0 UV-I 10,6 C 16,5 C 1,6 km/h (1 Bft)
27.06.2013 19:00 15,1 C 22,1 C 14,3 C 15,2 C 15,2 C 0,1 C 72 % 85 % 3 % 1019,9 hPa 0,0 l/m 0,2 km/h (0 Bft) S-SO 157 0 min 0,0 UV-I 10,1 C 15,2 C 0,0 km/h (0 Bft)
27.06.2013 19:05 15,0 C 22,1 C 14,1 C 15,0 C 15,0 C 0,0 C 72 % 85 % 0 % 1019,9 hPa 0,0 l/m 0,0 km/h (0 Bft) O 90 0 min 0,0 UV-I 10,0 C 15,0 C 0,0 km/h (0 Bft)
27.06.2013 19:10 14,8 C 22,1 C 14,1 C 14,8 C 14,7 C 0,0 C 73 % 84 % 0 % 1019,9 hPa 0,0 l/m 0,0 km/h (0 Bft) S-SO 157 0 min 0,0 UV-I 10,0 C 14,7 C 0,0 km/h (0 Bft)
27.06.2013 19:15 14,7 C 22,2 C 14,0 C 14,7 C 14,6 C 0,0 C 73 % 84 % 0 % 1019,6 hPa 0,0 l/m 0,0 km/h (0 Bft) S-SO 157 0 min 0,0 UV-I 9,9 C 14,6 C 0,0 km/h (0 Bft)
27.06.2013 19:20 14,6 C 22,2 C 13,9 C 14,6 C 14,5 C 0,0 C 74 % 84 % 0 % 1019,6 hPa 0,0 l/m 0,0 km/h (0 Bft) SO 135 0 min 0,0 UV-I 10,0 C 14,5 C 0,0 km/h (0 Bft)
27.06.2013 19:25 14,7 C 22,1 C 13,8 C 14,6 C 14,4 C 0,0 C 74 % 84 % 0 % 1019,6 hPa 0,0 l/m 0,0 km/h (0 Bft) S-SW 202 0 min 0,0 UV-I 10,1 C 14,4 C 0,0 km/h (0 Bft)
27.06.2013 19:30 14,5 C 22,1 C 13,7 C 14,4 C 14,3 C 0,0 C 74 % 84 % 0 % 1019,6 hPa 0,0 l/m 0,0 km/h (0 Bft) NW 315 0 min 0,0 UV-I 9,9 C 14,3 C 0,0 km/h (0 Bft)
27.06.2013 19:35 14,4 C 22,2 C 13,7 C 14,3 C 14,2 C 0,0 C 75 % 84 % 0 % 1019,2 hPa 0,0 l/m 0,0 km/h (0 Bft) O-NO 67 0 min 0,0 UV-I 10,0 C 14,2 C 0,0 km/h (0 Bft)
27.06.2013 19:40 14,4 C 22,1 C 13,6 C 14,3 C 14,0 C 0,0 C 75 % 84 % 0 % 1019,2 hPa 0,0 l/m 0,0 km/h (0 Bft) SW 225 0 min 0,0 UV-I 10,0 C 14,0 C 0,0 km/h (0 Bft)
27.06.2013 19:45 14,3 C 22,1 C 13,6 C 14,2 C 13,9 C 0,0 C 75 % 84 % 0 % 1019,2 hPa 0,0 l/m 0,0 km/h (0 Bft) SW 225 0 min 0,0 UV-I 9,9 C 13,9 C 0,0 km/h (0 Bft)
27.06.2013 19:50 14,3 C 22,2 C 13,5 C 14,1 C 13,7 C 0,0 C 76 % 84 % 0 % 1019,2 hPa 0,0 l/m 0,0 km/h (0 Bft) SW 225 0 min 0,0 UV-I 10,1 C 13,7 C 0,0 km/h (0 Bft)
27.06.2013 19:55 14,0 C 22,2 C 13,5 C 13,8 C 13,5 C 0,0 C 76 % 84 % 0 % 1019,4 hPa 0,0 l/m 0,0 km/h (0 Bft) O 90 0 min 0,0 UV-I 9,8 C 13,5 C 0,0 km/h (0 Bft)
27.06.2013 20:00 13,8 C 22,3 C 13,5 C 13,7 C 13,4 C 0,0 C 76 % 84 % 0 % 1019,4 hPa 0,0 l/m 0,0 km/h (0 Bft) NO 45 0 min 0,0 UV-I 9,6 C 13,4 C 0,0 km/h (0 Bft)
27.06.2013 20:05 13,7 C 22,3 C 13,4 C 13,6 C 13,3 C 0,0 C 77 % 84 % 0 % 1019,4 hPa 0,0 l/m 0,0 km/h (0 Bft) NO 45 0 min 0,0 UV-I 9,7 C 13,3 C 0,0 km/h (0 Bft)
27.06.2013 20:10 13,6 C 22,3 C 13,3 C 13,5 C 13,2 C 0,0 C 78 % 84 % 0 % 1019,4 hPa 0,0 l/m 0,0 km/h (0 Bft) W 270 0 min 0,0 UV-I 9,8 C 13,2 C 0,0 km/h (0 Bft)
27.06.2013 20:15 13,5 C 22,3 C 13,2 C 13,4 C 13,1 C 0,0 C 78 % 84 % 0 % 1019,3 hPa 0,0 l/m 0,0 km/h (0 Bft) NW 315 0 min 0,0 UV-I 9,7 C 13,1 C 0,0 km/h (0 Bft)
27.06.2013 20:20 13,5 C 22,3 C 13,2 C 13,3 C 12,9 C 0,0 C 78 % 84 % 0 % 1019,3 hPa 0,0 l/m 0,0 km/h (0 Bft) SW 225 0 min 0,0 UV-I 9,7 C 12,9 C 0,0 km/h (0 Bft)
27.06.2013 20:25 13,4 C 22,3 C 13,3 C 13,2 C 12,9 C 0,0 C 79 % 84 % 0 % 1019,3 hPa 0,0 l/m 0,0 km/h (0 Bft) SW 225 0 min 0,0 UV-I 9,8 C 12,9 C 0,0 km/h (0 Bft)
27.06.2013 20:30 13,2 C 22,4 C 13,2 C 13,0 C 12,7 C 0,0 C 80 % 85 % 0 % 1019,3 hPa 0,0 l/m 0,0 km/h (0 Bft) S-SO 157 0 min 0,0 UV-I 9,8 C 12,7 C 0,0 km/h (0 Bft)
27.06.2013 20:35 13,2 C 22,3 C 13,1 C 13,0 C 12,7 C 0,0 C 80 % 85 % 0 % 1019,5 hPa 0,0 l/m 0,0 km/h (0 Bft) O-SO 112 0 min 0,0 UV-I 9,8 C 12,7 C 0,0 km/h (0 Bft)
27.06.2013 20:40 13,1 C 22,3 C 13,1 C 12,9 C 12,6 C 0,0 C 80 % 85 % 0 % 1019,5 hPa 0,0 l/m 0,0 km/h (0 Bft) O-SO 112 0 min 0,0 UV-I 9,7 C 12,6 C 0,0 km/h (0 Bft)
27.06.2013 20:45 12,9 C 22,4 C 13,1 C 12,8 C 12,5 C 0,0 C 81 % 85 % 0 % 1019,5 hPa 0,0 l/m 0,0 km/h (0 Bft) O-SO 112 0 min 0,0 UV-I 9,7 C 12,5 C 0,0 km/h (0 Bft)
27.06.2013 20:50 12,8 C 22,5 C 13,1 C 12,7 C 12,5 C 0,0 C 81 % 85 % 0 % 1019,5 hPa 0,0 l/m 0,0 km/h (0 Bft) NO 45 0 min 0,0 UV-I 9,6 C 12,5 C 0,0 km/h (0 Bft)
27.06.2013 20:55 12,7 C 22,4 C 12,9 C 12,6 C 12,4 C 0,0 C 81 % 85 % 0 % 1019,8 hPa 0,0 l/m 0,0 km/h (0 Bft) O-NO 67 0 min 0,0 UV-I 9,5 C 12,4 C 0,0 km/h (0 Bft)
27.06.2013 21:00 12,7 C 22,5 C 12,9 C 12,6 C 12,3 C 0,0 C 82 % 85 % 0 % 1019,8 hPa 0,0 l/m 0,3 km/h (0 Bft) N-NO 22 0 min 0,0 UV-I 9,7 C 12,3 C 0,0 km/h (0 Bft)
27.06.2013 21:05 12,5 C 22,4 C 12,8 C 12,4 C 12,3 C 0,0 C 82 % 85 % 0 % 1019,8 hPa 0,0 l/m 0,3 km/h (0 Bft) O 90 0 min 0,0 UV-I 9,5 C 12,3 C 0,0 km/h (0 Bft)
27.06.2013 21:10 12,4 C 22,4 C 12,8 C 12,3 C 12,2 C 0,0 C 82 % 85 % 0 % 1019,8 hPa 0,0 l/m 0,3 km/h (0 Bft) O-SO 112 0 min 0,0 UV-I 9,4 C 12,2 C 1,6 km/h (1 Bft)
27.06.2013 21:15 12,4 C 22,4 C 12,7 C 12,3 C 12,1 C 0,0 C 82 % 85 % 0 % 1019,6 hPa 0,0 l/m 0,5 km/h (0 Bft) O 90 0 min 0,0 UV-I 9,4 C 12,1 C 1,6 km/h (1 Bft)
27.06.2013 21:20 12,3 C 22,4 C 12,7 C 12,2 C 12,0 C 0,0 C 82 % 85 % 0 % 1019,6 hPa 0,0 l/m 0,3 km/h (0 Bft) NO 45 0 min 0,0 UV-I 9,3 C 12,0 C 0,0 km/h (0 Bft)
27.06.2013 21:25 12,2 C 22,3 C 12,5 C 12,1 C 11,9 C 0,0 C 82 % 85 % 0 % 1019,6 hPa 0,0 l/m 0,0 km/h (0 Bft) NW 315 0 min 0,0 UV-I 9,2 C 11,9 C 0,0 km/h (0 Bft)
27.06.2013 21:30 12,3 C 22,3 C 12,5 C 12,1 C 11,7 C 0,0 C 82 % 85 % 0 % 1019,6 hPa 0,0 l/m 0,0 km/h (0 Bft) S 180 0 min 0,0 UV-I 9,3 C 11,7 C 0,0 km/h (0 Bft)
27.06.2013 21:35 12,1 C 22,3 C 12,5 C 12,0 C 11,7 C 0,0 C 82 % 85 % 0 % 1019,7 hPa 0,0 l/m 0,0 km/h (0 Bft) W-SW 247 0 min 0,0 UV-I 9,1 C 11,7 C 0,0 km/h (0 Bft)
27.06.2013 21:40 12,0 C 22,3 C 12,4 C 11,8 C 11,5 C 0,0 C 82 % 85 % 0 % 1019,7 hPa 0,0 l/m 0,0 km/h (0 Bft) S-SW 202 0 min 0,0 UV-I 9,0 C 11,5 C 0,0 km/h (0 Bft)
27.06.2013 21:45 12,1 C 22,4 C 12,4 C 11,9 C 11,5 C 0,0 C 82 % 85 % 0 % 1019,7 hPa 0,0 l/m 0,0 km/h (0 Bft) O 90 0 min 0,0 UV-I 9,1 C 11,5 C 0,0 km/h (0 Bft)
27.06.2013 21:50 11,8 C 22,4 C 12,3 C 11,7 C 11,4 C 0,0 C 83 % 84 % 0 % 1019,7 hPa 0,0 l/m 0,0 km/h (0 Bft) O 90 0 min 0,0 UV-I 9,0 C 11,4 C 0,0 km/h (0 Bft)
27.06.2013 21:55 11,8 C 22,4 C 12,3 C 11,6 C 11,3 C 0,0 C 83 % 84 % 0 % 1019,8 hPa 0,0 l/m 0,0 km/h (0 Bft) W-SW 247 0 min 0,0 UV-I 9,0 C 11,3 C 0,0 km/h (0 Bft)
27.06.2013 22:00 11,6 C 22,4 C 12,3 C 11,5 C 11,3 C 0,0 C 83 % 85 % 0 % 1019,8 hPa 0,0 l/m 0,0 km/h (0 Bft) W-SW 247 0 min 0,0 UV-I 8,8 C 11,3 C 0,0 km/h (0 Bft)
27.06.2013 22:05 11,6 C 22,4 C 12,3 C 11,5 C 11,3 C 0,0 C 84 % 85 % 0 % 1019,8 hPa 0,0 l/m 0,0 km/h (0 Bft) SW 225 0 min 0,0 UV-I 9,0 C 11,3 C 0,0 km/h (0 Bft)
27.06.2013 22:10 11,5 C 22,6 C 12,3 C 11,4 C 11,2 C 0,0 C 84 % 85 % 0 % 1019,8 hPa 0,0 l/m 0,0 km/h (0 Bft) SW 225 0 min 0,0 UV-I 8,9 C 11,2 C 0,0 km/h (0 Bft)
27.06.2013 22:15 11,5 C 22,6 C 12,3 C 11,4 C 11,2 C 0,0 C 84 % 85 % 0 % 1019,6 hPa 0,0 l/m 0,0 km/h (0 Bft) W 270 0 min 0,0 UV-I 8,9 C 11,2 C 0,0 km/h (0 Bft)
27.06.2013 22:20 11,3 C 22,6 C 12,1 C 11,2 C 11,1 C 0,0 C 84 % 85 % 0 % 1019,6 hPa 0,0 l/m 0,0 km/h (0 Bft) O-NO 67 0 min 0,0 UV-I 8,7 C 11,1 C 0,0 km/h (0 Bft)
27.06.2013 22:25 11,2 C 22,6 C 12,0 C 11,2 C 11,1 C 0,0 C 84 % 85 % 0 % 1019,6 hPa 0,0 l/m 0,0 km/h (0 Bft) O 90 0 min 0,0 UV-I 8,6 C 11,1 C 0,0 km/h (0 Bft)
27.06.2013 22:30 11,1 C 22,6 C 12,0 C 11,1 C 11,0 C 0,0 C 84 % 85 % 0 % 1019,6 hPa 0,0 l/m 0,0 km/h (0 Bft) O 90 0 min 0,0 UV-I 8,5 C 11,0 C 0,0 km/h (0 Bft)
27.06.2013 22:35 11,0 C 22,6 C 12,0 C 11,0 C 10,9 C 0,0 C 84 % 85 % 0 % 1019,8 hPa 0,0 l/m 0,0 km/h (0 Bft) O 90 0 min 0,0 UV-I 8,4 C 10,9 C 0,0 km/h (0 Bft)
27.06.2013 22:40 10,9 C 22,7 C 12,0 C 10,9 C 10,8 C 0,0 C 85 % 85 % 0 % 1019,8 hPa 0,0 l/m 0,0 km/h (0 Bft) O 90 0 min 0,0 UV-I 8,5 C 10,8 C 0,0 km/h (0 Bft)
27.06.2013 22:45 10,9 C 22,6 C 11,9 C 10,8 C 10,7 C 0,0 C 85 % 85 % 0 % 1019,8 hPa 0,0 l/m 0,0 km/h (0 Bft) O-NO 67 0 min 0,0 UV-I 8,5 C 10,7 C 0,0 km/h (0 Bft)
27.06.2013 22:50 10,8 C 22,6 C 11,9 C 10,8 C 10,7 C 0,0 C 85 % 85 % 0 % 1019,8 hPa 0,0 l/m 0,0 km/h (0 Bft) O 90 0 min 0,0 UV-I 8,4 C 10,7 C 0,0 km/h (0 Bft)
27.06.2013 22:55 10,7 C 22,7 C 11,7 C 10,7 C 10,6 C 0,0 C 85 % 85 % 0 % 1019,5 hPa 0,0 l/m 0,0 km/h (0 Bft) O-NO 67 0 min 0,0 UV-I 8,3 C 10,6 C 0,0 km/h (0 Bft)
27.06.2013 23:00 10,7 C 22,6 C 11,6 C 10,7 C 10,6 C 0,0 C 85 % 85 % 0 % 1019,5 hPa 0,0 l/m 0,0 km/h (0 Bft) N-NW 337 0 min 0,0 UV-I 8,3 C 10,6 C 0,0 km/h (0 Bft)
27.06.2013 23:05 10,5 C 22,6 C 11,6 C 10,5 C 10,5 C 0,0 C 85 % 85 % 0 % 1019,5 hPa 0,0 l/m 0,0 km/h (0 Bft) N-NW 337 0 min 0,0 UV-I 8,1 C 10,5 C 0,0 km/h (0 Bft)
27.06.2013 23:10 10,5 C 22,6 C 11,6 C 10,5 C 10,5 C 0,0 C 85 % 85 % 0 % 1019,5 hPa 0,0 l/m 0,0 km/h (0 Bft) O 90 0 min 0,0 UV-I 8,1 C 10,5 C 0,0 km/h (0 Bft)
27.06.2013 23:15 10,5 C 22,6 C 11,6 C 10,5 C 10,5 C 0,0 C 86 % 85 % 0 % 1019,8 hPa 0,0 l/m 0,0 km/h (0 Bft) O 90 0 min 0,0 UV-I 8,3 C 10,5 C 0,0 km/h (0 Bft)
27.06.2013 23:20 10,4 C 22,7 C 11,7 C 10,5 C 10,5 C 0,1 C 86 % 85 % 0 % 1019,8 hPa 0,0 l/m 0,0 km/h (0 Bft) O-NO 67 0 min 0,0 UV-I 8,2 C 10,5 C 0,0 km/h (0 Bft)
27.06.2013 23:25 10,3 C 22,7 C 11,7 C 10,5 C 10,5 C 0,2 C 86 % 85 % 0 % 1019,8 hPa 0,0 l/m 0,0 km/h (0 Bft) O-NO 67 0 min 0,0 UV-I 8,1 C 10,5 C 0,0 km/h (0 Bft)
27.06.2013 23:30 10,3 C 22,7 C 11,7 C 10,5 C 10,5 C 0,2 C 86 % 85 % 0 % 1019,8 hPa 0,0 l/m 0,0 km/h (0 Bft) O 90 0 min 0,0 UV-I 8,1 C 10,5 C 0,0 km/h (0 Bft)
27.06.2013 23:35 10,2 C 22,7 C 11,6 C 10,5 C 10,5 C 0,3 C 86 % 85 % 0 % 1019,9 hPa 0,0 l/m 0,0 km/h (0 Bft) O-NO 67 0 min 0,0 UV-I 8,0 C 10,5 C 0,0 km/h (0 Bft)
27.06.2013 23:40 10,2 C 22,7 C 11,6 C 10,5 C 10,5 C 0,3 C 86 % 85 % 0 % 1019,9 hPa 0,0 l/m 0,0 km/h (0 Bft) O-NO 67 0 min 0,0 UV-I 8,0 C 10,5 C 0,0 km/h (0 Bft)
27.06.2013 23:45 10,1 C 22,7 C 11,5 C 10,5 C 10,5 C 0,4 C 86 % 85 % 0 % 1019,9 hPa 0,0 l/m 0,0 km/h (0 Bft) O-NO 67 0 min 0,0 UV-I 7,9 C 10,5 C 0,0 km/h (0 Bft)
27.06.2013 23:50 10,1 C 22,7 C 11,5 C 10,5 C 10,5 C 0,4 C 86 % 85 % 0 % 1019,9 hPa 0,0 l/m 0,0 km/h (0 Bft) SW 225 0 min 0,0 UV-I 7,9 C 10,5 C 0,0 km/h (0 Bft)
27.06.2013 23:55 10,1 C 22,6 C 11,6 C 10,5 C 10,5 C 0,4 C 86 % 85 % 0 % 1019,8 hPa 0,0 l/m 0,0 km/h (0 Bft) W 270 0 min 0,0 UV-I 7,9 C 10,5 C 0,0 km/h (0 Bft)
_ Min-Zeit 02:55 08:50 02:25 02:35 02:10 00:00 11:40 10:50 00:00 19:35 - 02:00 - - - 00:00 02:55 02:10 00:20
Minimum _ 7,4 C 21,6 C 9,1 C 7,5 C 7,2 C 0,0 C 68 % 76 % 0 % 1019,2 hPa - 0,0 km/h (0 Bft) - - - 0,0 UV-I 5,2 C 7,2 C 0,0 km/h (0 Bft)
_ Max-Zeit 11:50 22:40 11:30 11:30 11:30 09:00 03:55 14:25 07:35 02:35 12:30 17:00 - - 05:15 07:40 16:20 11:30 12:00
Maximum _ 16,6 C 22,7 C 15,5 C 20,7 C 20,7 C 5,5 C 88 % 87 % 100 % 1022,8 hPa 0,7 l/m 5,1 km/h
W-NW (1 Bft)
- - 5 min 0,6 UV-I 12,4 C 20,7 C 14,6 km/h
SW (3 Bft)
Durchschnitt _ 12,1 C 22,1 C 12,4 C 13,3 C 13,2 C 1,2 C 81 % 84 % 30 % 1020,7 hPa #4,8 l/m 0,6 km/h (0 Bft) W-SW - #2:50 h 0,3 UV-I 8,9 C 13,2 C 0,7 km/h (0 Bft)
2013 www.wetterstation-wechselburg.de